createdAt,value
2023-01-23T00:01:39.888Z,3.43
2023-01-23T00:04:07.918Z,2.27
2023-01-23T00:06:35.896Z,3.57
2023-01-23T00:09:03.920Z,2.47
2023-01-23T00:11:32.053Z,1.80
2023-01-23T00:14:00.485Z,1.50
2023-01-23T00:16:29.623Z,1.40
2023-01-23T00:18:59.142Z,1.63
2023-01-23T00:21:28.641Z,1.50
2023-01-23T00:23:58.496Z,1.87
2023-01-23T00:26:27.137Z,3.20
2023-01-23T00:28:55.376Z,1.13
2023-01-23T00:31:24.755Z,1.63
2023-01-23T00:33:55.157Z,2.13
2023-01-23T00:36:24.568Z,2.20
2023-01-23T00:38:52.514Z,2.27
2023-01-23T00:41:20.523Z,1.87
2023-01-23T00:43:48.893Z,1.33
2023-01-23T00:46:16.915Z,3.03
2023-01-23T00:48:44.877Z,0.80
2023-01-23T00:51:12.906Z,1.00
2023-01-23T00:53:42.294Z,2.00
2023-01-23T00:56:10.295Z,1.70
2023-01-23T00:58:38.284Z,0.80
2023-01-23T01:01:06.435Z,1.47
2023-01-23T01:03:34.494Z,1.23
2023-01-23T01:06:02.520Z,2.67
2023-01-23T01:08:30.525Z,0.63
2023-01-23T01:10:59.880Z,2.13
2023-01-23T01:13:27.965Z,0.90
2023-01-23T01:15:56.184Z,0.73
2023-01-23T01:18:24.396Z,3.50
2023-01-23T01:20:52.362Z,1.13
2023-01-23T01:23:20.306Z,1.30
2023-01-23T01:25:48.462Z,1.73
2023-01-23T01:28:17.799Z,3.33
2023-01-23T01:30:45.747Z,1.00
2023-01-23T01:33:13.747Z,1.50
2023-01-23T01:35:42.273Z,0.40
2023-01-23T01:38:10.311Z,0.60
2023-01-23T01:40:38.481Z,1.07
2023-01-23T01:43:08.630Z,1.37
2023-01-23T01:46:05.318Z,1.30
2023-01-23T01:48:34.583Z,0.63
2023-01-23T01:51:02.671Z,1.07
2023-01-23T01:53:30.761Z,0.77
2023-01-23T01:55:58.713Z,3.93
2023-01-23T01:58:26.709Z,0.90
2023-01-23T02:00:55.205Z,1.37
2023-01-23T02:03:24.560Z,1.80
2023-01-23T02:05:52.542Z,0.90
2023-01-23T02:08:21.802Z,0.90
2023-01-23T02:10:49.899Z,0.60
2023-01-23T02:13:22.712Z,1.13
2023-01-23T02:15:50.701Z,0.57
2023-01-23T02:18:18.668Z,1.50
2023-01-23T02:20:48.159Z,0.77
2023-01-23T02:23:21.710Z,1.67
2023-01-23T02:25:56.923Z,0.87
2023-01-23T02:28:24.904Z,5.30
2023-01-23T02:30:52.882Z,1.13
2023-01-23T02:33:46.899Z,0.57
2023-01-23T02:36:14.891Z,0.60
2023-01-23T02:38:49.347Z,1.53
2023-01-23T02:41:19.212Z,1.13
2023-01-23T02:43:47.396Z,1.03
2023-01-23T02:46:19.017Z,1.40
2023-01-23T02:48:47.619Z,1.57
2023-01-23T02:51:17.148Z,0.60
2023-01-23T02:53:45.272Z,0.60
2023-01-23T02:56:13.308Z,0.53
2023-01-23T02:59:00.589Z,0.80
2023-01-23T03:01:28.657Z,5.53
2023-01-23T03:04:03.580Z,1.30
2023-01-23T03:06:36.236Z,0.83
2023-01-23T03:09:09.077Z,1.70
2023-01-23T03:11:38.075Z,0.87
2023-01-23T03:14:08.144Z,0.83
2023-01-23T03:16:38.299Z,1.23
2023-01-23T03:19:08.986Z,0.70
2023-01-23T03:21:40.014Z,1.77
2023-01-23T03:24:08.732Z,1.10
2023-01-23T03:26:38.648Z,0.90
2023-01-23T03:29:25.641Z,0.57
2023-01-23T03:31:53.648Z,0.70
2023-01-23T03:34:22.259Z,3.50
2023-01-23T03:36:50.200Z,0.87
2023-01-23T03:39:35.587Z,1.50
2023-01-23T03:42:03.549Z,0.70
2023-01-23T03:44:32.893Z,0.47
2023-01-23T03:47:00.875Z,0.73
2023-01-23T03:49:28.862Z,0.73
2023-01-23T03:51:56.922Z,0.67
2023-01-23T03:54:24.927Z,0.70
2023-01-23T03:56:52.939Z,1.27
2023-01-23T03:59:20.929Z,2.73
2023-01-23T04:01:50.294Z,0.90
2023-01-23T04:04:18.267Z,0.77
2023-01-23T04:06:46.258Z,0.50
2023-01-23T04:09:14.334Z,0.80
2023-01-23T04:11:42.321Z,0.67
2023-01-23T04:14:10.371Z,3.30
2023-01-23T04:16:38.366Z,0.40
2023-01-23T04:19:07.710Z,0.50
2023-01-23T04:21:35.691Z,0.50
2023-01-23T04:24:03.698Z,1.50
2023-01-23T04:26:31.761Z,0.30
2023-01-23T04:28:59.796Z,1.60
2023-01-23T04:31:27.884Z,0.40
2023-01-23T04:33:55.969Z,0.60
2023-01-23T04:36:25.296Z,0.60
2023-01-23T04:38:53.303Z,0.50
2023-01-23T04:41:22.427Z,0.67
2023-01-23T04:43:50.403Z,0.60
2023-01-23T04:46:18.370Z,0.50
2023-01-23T04:48:48.726Z,0.40
2023-01-23T04:51:16.908Z,0.63
2023-01-23T04:53:46.278Z,0.33
2023-01-23T04:56:14.317Z,0.50
2023-01-23T04:58:42.296Z,2.00
2023-01-23T05:01:11.130Z,0.57
2023-01-23T05:03:39.147Z,0.30
2023-01-23T05:06:07.784Z,0.77
2023-01-23T05:08:35.721Z,0.70
2023-01-23T05:11:05.277Z,1.43
2023-01-23T05:13:33.298Z,2.77
2023-01-23T05:16:01.341Z,1.53
2023-01-23T05:18:30.103Z,1.30
2023-01-23T05:20:58.058Z,2.20
2023-01-23T05:23:26.147Z,1.03
2023-01-23T05:25:54.161Z,2.63
2023-01-23T05:28:23.551Z,2.07
2023-01-23T05:30:51.659Z,3.60
2023-01-23T05:33:19.727Z,2.30
2023-01-23T05:35:47.723Z,2.00
2023-01-23T05:38:15.738Z,3.20
2023-01-23T05:40:43.726Z,2.53
2023-01-23T05:43:13.164Z,1.27
2023-01-23T05:45:42.492Z,2.50
2023-01-23T05:48:10.546Z,1.53
2023-01-23T05:50:38.489Z,1.70
2023-01-23T05:53:06.518Z,1.90
2023-01-23T05:55:34.500Z,1.50
2023-01-23T05:58:02.547Z,2.70
2023-01-23T06:00:30.543Z,3.17
2023-01-23T06:02:59.920Z,2.07
2023-01-23T06:05:27.954Z,1.37
2023-01-23T06:07:55.953Z,1.90
2023-01-23T06:10:23.956Z,1.40
2023-01-23T06:12:51.939Z,1.70
2023-01-23T06:15:19.960Z,2.67
2023-01-23T06:17:47.950Z,3.27
2023-01-23T06:20:17.897Z,2.23
2023-01-23T06:22:46.395Z,1.63
2023-01-23T06:25:14.461Z,4.57
2023-01-23T06:27:42.460Z,1.73
2023-01-23T06:30:11.680Z,3.17
2023-01-23T06:32:39.817Z,1.10
2023-01-23T06:35:08.440Z,2.73
2023-01-23T06:37:37.791Z,2.47
2023-01-23T06:40:06.502Z,2.97
2023-01-23T06:42:34.499Z,2.10
2023-01-23T06:45:02.491Z,2.17
2023-01-23T06:47:30.561Z,2.23
2023-01-23T06:49:58.549Z,1.50
2023-01-23T06:52:26.591Z,2.33
2023-01-23T06:54:55.998Z,2.13
2023-01-23T06:57:24.048Z,2.17
2023-01-23T06:59:52.087Z,1.67
2023-01-23T07:02:20.119Z,1.17
2023-01-23T07:04:48.232Z,1.23
2023-01-23T07:07:16.222Z,0.97
2023-01-23T07:09:44.402Z,1.37
2023-01-23T07:12:14.279Z,4.20
2023-01-23T07:14:42.274Z,1.70
2023-01-23T07:17:10.307Z,3.07
2023-01-23T07:19:38.287Z,1.53
2023-01-23T07:22:06.253Z,1.40
2023-01-23T07:24:34.419Z,1.73
2023-01-23T07:27:02.429Z,1.93
2023-01-23T07:29:31.902Z,1.73
2023-01-23T07:32:00.876Z,3.13
2023-01-23T07:34:28.862Z,0.97
2023-01-23T07:36:56.906Z,1.30
2023-01-23T07:39:24.940Z,1.43
2023-01-23T07:41:52.904Z,3.27
2023-01-23T07:44:21.660Z,1.33
2023-01-23T07:46:51.178Z,1.07
2023-01-23T07:49:19.382Z,0.60
2023-01-23T07:51:47.320Z,1.50
2023-01-23T07:54:15.293Z,0.97
2023-01-23T07:56:43.331Z,1.37
2023-01-23T07:59:12.664Z,1.37
2023-01-23T08:01:40.662Z,1.70
2023-01-23T08:04:10.084Z,3.50
2023-01-23T08:06:38.249Z,1.30
2023-01-23T08:09:06.336Z,3.00
2023-01-23T08:11:34.521Z,0.80
2023-01-23T08:14:02.537Z,1.93
2023-01-23T08:16:30.537Z,2.33
2023-01-23T08:18:59.002Z,2.93
2023-01-23T08:21:28.354Z,1.67
2023-01-23T08:23:56.336Z,1.80
2023-01-23T08:26:24.328Z,1.27
2023-01-23T08:28:52.298Z,0.87
2023-01-23T08:31:20.315Z,0.83
2023-01-23T08:33:48.366Z,1.07
2023-01-23T08:36:16.392Z,1.67
2023-01-23T08:38:45.739Z,1.07
2023-01-23T08:41:13.694Z,1.43
2023-01-23T08:43:41.815Z,1.10
2023-01-23T08:46:10.062Z,1.27
2023-01-23T08:48:38.120Z,0.93
2023-01-23T08:51:07.086Z,0.50
2023-01-23T08:53:35.329Z,2.20
2023-01-23T08:56:07.812Z,0.80
2023-01-23T08:58:36.258Z,0.80
2023-01-23T09:01:04.249Z,0.77
2023-01-23T09:03:32.285Z,0.97
2023-01-23T09:06:02.204Z,1.90
2023-01-23T09:08:30.199Z,3.60
2023-01-23T09:11:01.431Z,1.60
2023-01-23T09:13:30.820Z,0.73
2023-01-23T09:15:58.830Z,0.70
2023-01-23T09:18:26.956Z,0.50
2023-01-23T09:20:55.015Z,1.00
2023-01-23T09:23:23.224Z,0.67
2023-01-23T09:25:51.398Z,0.93
2023-01-23T09:28:19.545Z,0.97
2023-01-23T09:30:48.951Z,0.70
2023-01-23T09:33:18.122Z,2.13
2023-01-23T09:35:46.294Z,1.00
2023-01-23T09:38:14.299Z,0.80
2023-01-23T09:40:47.271Z,1.33
2023-01-23T09:43:17.863Z,3.30
2023-01-23T09:45:51.641Z,0.90
2023-01-23T09:48:22.215Z,1.37
2023-01-23T09:50:54.979Z,0.60
2023-01-23T09:53:24.469Z,1.20
2023-01-23T09:55:57.275Z,0.40
2023-01-23T09:58:28.781Z,0.60
2023-01-23T10:00:59.241Z,1.27
2023-01-23T10:03:29.888Z,1.63
2023-01-23T10:06:05.420Z,1.10
2023-01-23T10:08:35.108Z,0.90
2023-01-23T10:11:04.469Z,1.27
2023-01-23T10:13:48.869Z,0.73
2023-01-23T10:16:49.146Z,1.47
2023-01-23T10:19:23.317Z,1.27
2023-01-23T10:21:53.134Z,2.83
2023-01-23T10:24:40.423Z,1.20
2023-01-23T10:27:18.609Z,1.00
2023-01-23T10:29:48.493Z,1.20
2023-01-23T10:32:23.836Z,0.73
2023-01-23T10:34:55.509Z,0.80
2023-01-23T10:37:26.644Z,1.60
2023-01-23T10:39:58.056Z,0.83
2023-01-23T10:42:27.694Z,0.83
2023-01-23T10:44:55.693Z,3.50
2023-01-23T10:47:32.881Z,0.67
2023-01-23T10:50:01.380Z,0.60
2023-01-23T10:52:34.972Z,1.87
2023-01-23T10:55:03.090Z,1.10
2023-01-23T10:57:32.167Z,2.23
2023-01-23T11:00:04.245Z,2.03
2023-01-23T11:02:34.092Z,0.50
2023-01-23T11:05:02.448Z,0.97
2023-01-23T11:07:30.946Z,1.67
2023-01-23T11:09:59.877Z,1.20
2023-01-23T11:12:28.793Z,0.63
2023-01-23T11:15:24.094Z,0.77
2023-01-23T11:17:54.035Z,0.87
2023-01-23T11:20:25.490Z,2.30
2023-01-23T11:23:02.253Z,0.67
2023-01-23T11:25:31.666Z,0.70
2023-01-23T11:28:00.438Z,1.53
2023-01-23T11:30:35.708Z,0.83
2023-01-23T11:33:10.312Z,2.20
2023-01-23T11:35:59.569Z,0.77
2023-01-23T11:38:31.217Z,0.67
2023-01-23T11:40:59.477Z,0.57
2023-01-23T11:43:27.501Z,0.93
2023-01-23T11:46:16.558Z,0.60
2023-01-23T11:48:55.086Z,0.60
2023-01-23T11:51:26.182Z,1.17
2023-01-23T11:53:58.412Z,0.47
2023-01-23T11:56:51.529Z,0.60
2023-01-23T11:59:46.197Z,0.43
2023-01-23T12:02:46.288Z,0.70
2023-01-23T12:05:36.828Z,1.27
2023-01-23T12:08:11.654Z,0.90
2023-01-23T12:10:46.858Z,1.10
2023-01-23T12:13:22.066Z,0.77
2023-01-23T12:16:02.724Z,2.03
2023-01-23T12:18:35.627Z,0.90
2023-01-23T12:21:09.734Z,0.70
2023-01-23T12:23:50.362Z,0.60
2023-01-23T12:26:20.882Z,1.43
2023-01-23T12:29:02.072Z,0.83
2023-01-23T12:31:36.738Z,1.30
2023-01-23T12:34:19.527Z,0.87
2023-01-23T12:37:11.828Z,1.03
2023-01-23T12:39:57.273Z,0.87
2023-01-23T12:42:26.389Z,0.70
2023-01-23T12:44:59.758Z,0.60
2023-01-23T12:47:29.756Z,0.57
2023-01-23T12:49:59.397Z,0.80
2023-01-23T12:52:30.130Z,0.60
2023-01-23T12:55:00.865Z,1.13
2023-01-23T12:57:59.897Z,0.90
2023-01-23T13:00:45.882Z,1.33
2023-01-23T13:03:45.904Z,0.73
2023-01-23T13:06:34.951Z,0.70
2023-01-23T13:09:17.963Z,1.00
2023-01-23T13:11:51.711Z,1.17
2023-01-23T13:14:25.576Z,0.97
2023-01-23T13:16:58.951Z,0.90
2023-01-23T13:19:44.744Z,0.60
2023-01-23T13:22:29.114Z,0.80
2023-01-23T13:25:12.883Z,1.70
2023-01-23T13:27:51.542Z,0.93
2023-01-23T13:30:41.053Z,1.10
2023-01-23T13:33:52.191Z,2.13
2023-01-23T13:36:38.776Z,0.50
2023-01-23T13:39:27.726Z,0.67
2023-01-23T13:42:36.665Z,0.60
2023-01-23T13:45:32.430Z,0.83
2023-01-23T14:25:15.848Z,0.70
2023-01-23T14:27:52.861Z,0.60
2023-01-23T14:30:24.794Z,0.40
2023-01-23T14:32:54.286Z,0.47
2023-01-23T14:35:25.387Z,1.10
2023-01-23T14:37:53.805Z,1.17
2023-01-23T14:40:27.599Z,1.17
2023-01-23T14:42:59.988Z,1.30
2023-01-23T14:45:32.117Z,1.43
2023-01-23T14:48:06.902Z,0.87
2023-01-23T14:50:35.612Z,1.57
2023-01-23T14:53:04.481Z,0.70
2023-01-23T14:55:32.714Z,0.80
2023-01-23T14:58:01.085Z,0.60
2023-01-23T15:00:29.088Z,0.77
2023-01-23T15:02:57.165Z,0.90
2023-01-23T15:05:27.397Z,1.20
2023-01-23T15:07:56.424Z,1.97
2023-01-23T15:10:25.461Z,0.63
2023-01-23T15:12:55.533Z,0.60
2023-01-23T15:15:24.919Z,0.40
2023-01-23T15:17:53.166Z,0.70
2023-01-23T15:20:36.301Z,0.83
2023-01-23T15:23:28.313Z,0.47
2023-01-23T15:26:24.077Z,0.57
2023-01-23T15:28:52.574Z,0.70
2023-01-23T15:31:28.381Z,2.40
2023-01-23T15:33:56.702Z,0.70
2023-01-23T15:36:27.978Z,1.30
2023-01-23T15:38:56.178Z,0.63
2023-01-23T15:41:39.323Z,0.97
2023-01-23T15:44:13.659Z,0.77
2023-01-23T15:46:41.869Z,1.23
2023-01-23T15:49:23.592Z,1.10
2023-01-23T15:51:55.960Z,1.10
2023-01-23T15:54:25.990Z,2.40
2023-01-23T15:57:06.484Z,0.73
2023-01-23T15:59:35.489Z,1.00
2023-01-23T16:02:03.536Z,0.63
2023-01-23T16:04:31.569Z,0.90
2023-01-23T16:07:01.346Z,1.00
2023-01-23T16:09:30.781Z,1.77
2023-01-23T16:11:58.872Z,1.47
2023-01-23T16:14:27.016Z,1.90
2023-01-23T16:16:56.675Z,0.97
2023-01-23T16:19:26.210Z,0.90
2023-01-23T16:22:04.293Z,0.70
2023-01-23T16:24:36.160Z,0.53
2023-01-23T16:27:04.299Z,1.07
2023-01-23T16:29:33.228Z,0.90
2023-01-23T16:32:02.373Z,1.00
2023-01-23T16:34:30.531Z,1.40
2023-01-23T16:36:59.364Z,0.90
2023-01-23T16:39:28.627Z,1.33
2023-01-23T16:41:58.283Z,0.53
2023-01-23T16:44:27.578Z,1.13
2023-01-23T16:46:55.632Z,2.10
2023-01-23T16:49:23.745Z,0.80
2023-01-23T16:51:57.316Z,1.43
2023-01-23T16:54:26.038Z,1.30
2023-01-23T16:56:54.187Z,1.07
2023-01-23T16:59:31.209Z,0.70
2023-01-23T17:01:59.688Z,0.60
2023-01-23T17:04:27.632Z,0.60
2023-01-23T17:06:55.652Z,0.60
2023-01-23T17:09:23.664Z,1.10
2023-01-23T17:11:52.254Z,0.97
2023-01-23T17:14:21.871Z,1.23
2023-01-23T17:16:51.340Z,1.43
2023-01-23T17:19:22.713Z,1.50
2023-01-23T17:21:51.851Z,0.80
2023-01-23T17:24:19.886Z,0.80
2023-01-23T17:26:47.977Z,0.83
2023-01-23T17:29:16.236Z,0.60
2023-01-23T17:31:44.354Z,1.23
2023-01-23T17:34:18.095Z,0.70
2023-01-23T17:36:46.351Z,0.90
2023-01-23T17:39:14.355Z,0.70
2023-01-23T17:41:42.435Z,0.90
2023-01-23T17:44:10.461Z,1.37
2023-01-23T17:46:39.463Z,0.50
2023-01-23T17:49:29.791Z,1.37
2023-01-23T17:51:58.303Z,4.60
2023-01-23T17:54:27.510Z,3.23
2023-01-23T17:56:55.544Z,5.60
2023-01-23T17:59:23.516Z,5.50
2023-01-23T18:01:51.625Z,12.33
2023-01-23T18:04:20.459Z,7.13
2023-01-23T18:06:50.030Z,10.57
2023-01-23T18:09:18.725Z,14.07
2023-01-23T18:11:52.086Z,6.57
2023-01-23T18:14:37.545Z,8.53
2023-01-23T18:17:14.718Z,10.23
2023-01-23T18:19:43.269Z,6.17
2023-01-23T18:22:13.341Z,6.13
2023-01-23T18:24:41.805Z,10.83
2023-01-23T18:27:18.906Z,8.67
2023-01-23T18:29:54.211Z,7.33
2023-01-23T18:32:42.909Z,5.67
2023-01-23T18:35:17.626Z,6.63
2023-01-23T18:37:49.593Z,6.77
2023-01-23T18:40:20.734Z,9.87
2023-01-23T18:42:55.423Z,5.27
2023-01-23T18:45:27.514Z,5.43
2023-01-23T18:47:57.268Z,5.10
2023-01-23T18:50:27.098Z,9.40
2023-01-23T18:53:06.179Z,7.10
2023-01-23T18:55:37.367Z,5.20
2023-01-23T18:58:25.050Z,8.60
2023-01-23T19:00:57.565Z,6.57
2023-01-23T19:03:29.854Z,6.37
2023-01-23T19:05:58.427Z,4.27
2023-01-23T19:08:30.527Z,4.47
2023-01-23T19:11:01.046Z,4.57
2023-01-23T19:13:30.720Z,4.93
2023-01-23T19:16:02.230Z,5.80
2023-01-23T19:18:43.024Z,4.87
2023-01-23T19:21:16.208Z,4.13
2023-01-23T19:23:50.192Z,2.93
2023-01-23T19:26:19.806Z,4.77
2023-01-23T19:28:48.230Z,2.50
2023-01-23T19:31:20.733Z,5.93
2023-01-23T19:33:48.779Z,2.93
2023-01-23T19:36:16.930Z,4.57
2023-01-23T19:38:46.286Z,5.67
2023-01-23T19:41:19.655Z,4.87
2023-01-23T19:43:51.463Z,4.10
2023-01-23T19:46:19.666Z,4.97
2023-01-23T19:48:47.817Z,5.03
2023-01-23T19:51:17.466Z,3.97
2023-01-23T19:53:47.117Z,5.50
2023-01-23T19:56:15.871Z,4.00
2023-01-23T19:58:43.867Z,4.77
2023-01-23T20:01:19.396Z,3.63
2023-01-23T20:03:47.523Z,3.70
2023-01-23T20:06:15.513Z,6.77
2023-01-23T20:08:43.536Z,5.33
2023-01-23T20:11:13.084Z,3.73
2023-01-23T20:13:42.052Z,5.33
2023-01-23T20:16:10.727Z,5.50
2023-01-23T20:18:38.909Z,4.67
2023-01-23T20:21:07.247Z,4.73
2023-01-23T20:23:35.447Z,13.70
2023-01-23T20:26:03.533Z,4.67
2023-01-23T20:28:32.909Z,4.37
2023-01-23T20:31:04.937Z,5.60
2023-01-23T20:33:33.050Z,4.20
2023-01-23T20:36:01.333Z,6.00
2023-01-23T20:38:29.511Z,5.43
2023-01-23T20:41:02.892Z,5.03
2023-01-23T20:43:32.228Z,4.30
2023-01-23T20:46:00.258Z,5.50
2023-01-23T20:48:28.342Z,6.80
2023-01-23T20:50:57.129Z,5.97
2023-01-23T20:53:29.963Z,7.07
2023-01-23T20:55:58.602Z,6.07
2023-01-23T20:58:44.167Z,6.80
2023-01-23T21:01:13.914Z,7.17
2023-01-23T21:03:42.159Z,5.80
2023-01-23T21:06:10.197Z,7.17
2023-01-23T21:08:38.309Z,5.70
2023-01-23T21:11:07.484Z,4.93
2023-01-23T21:13:35.629Z,5.67
2023-01-23T21:16:04.941Z,6.07
2023-01-23T21:18:36.115Z,5.53
2023-01-23T21:21:05.425Z,3.73
2023-01-23T21:23:33.412Z,6.40
2023-01-23T21:26:01.638Z,4.10
2023-01-23T21:28:30.212Z,6.90
2023-01-23T21:30:58.401Z,7.53
2023-01-23T21:33:26.496Z,4.43
2023-01-23T21:35:55.944Z,7.33
2023-01-23T21:38:23.997Z,4.43
2023-01-23T21:40:51.981Z,3.57
2023-01-23T21:43:19.942Z,3.60
2023-01-23T21:45:48.003Z,4.10
2023-01-23T21:48:15.952Z,3.13
2023-01-23T21:50:43.902Z,4.70
2023-01-23T21:53:13.217Z,2.90
2023-01-23T21:55:41.201Z,5.30
2023-01-23T21:58:09.178Z,3.27
2023-01-23T22:00:54.584Z,3.50
2023-01-23T22:03:22.587Z,3.90
2023-01-23T22:05:50.599Z,4.03
2023-01-23T22:08:19.969Z,11.30
2023-01-23T22:10:48.013Z,3.73
2023-01-23T22:13:16.082Z,6.43
2023-01-23T22:15:44.235Z,3.80
2023-01-23T22:18:12.392Z,4.83
2023-01-23T22:20:40.411Z,3.93
2023-01-23T22:23:08.416Z,3.77
2023-01-23T22:25:37.724Z,2.57
2023-01-23T22:28:05.926Z,3.63
2023-01-23T22:30:33.973Z,3.27
2023-01-23T22:33:01.959Z,4.10
2023-01-23T22:35:29.940Z,4.23
2023-01-23T22:37:57.971Z,4.37
2023-01-23T22:40:25.990Z,2.67
2023-01-23T22:42:55.283Z,4.60
2023-01-23T22:45:23.654Z,3.00
2023-01-23T22:47:51.791Z,2.83
2023-01-23T22:50:19.900Z,4.30
2023-01-23T22:52:47.960Z,3.37
2023-01-23T22:55:15.997Z,2.63
2023-01-23T22:57:44.116Z,3.15
2023-01-23T23:00:15.150Z,3.10
2023-01-23T23:02:43.214Z,3.70
2023-01-23T23:05:11.656Z,5.53
2023-01-23T23:07:39.700Z,2.40
2023-01-23T23:10:08.664Z,5.00
2023-01-23T23:12:36.667Z,3.53
2023-01-23T23:15:04.998Z,3.80
2023-01-23T23:17:34.384Z,2.00
2023-01-23T23:20:02.465Z,3.90
2023-01-23T23:22:30.484Z,2.00
2023-01-23T23:24:58.434Z,1.93
2023-01-23T23:27:26.485Z,2.53
2023-01-23T23:29:54.433Z,2.93
2023-01-23T23:32:22.772Z,1.90
2023-01-23T23:34:52.159Z,1.93
2023-01-23T23:37:20.162Z,1.43
2023-01-23T23:39:48.129Z,1.90
2023-01-23T23:42:16.093Z,1.63
2023-01-23T23:44:44.076Z,1.67
2023-01-23T23:47:12.017Z,2.13
2023-01-23T23:49:40.050Z,1.63
2023-01-23T23:52:09.392Z,2.50
2023-01-23T23:54:37.407Z,1.20
2023-01-23T23:57:05.521Z,1.63
2023-01-23T23:59:33.464Z,1.33
